createdAt,value
2018-07-07T00:01:09.023Z,99.90
2018-07-07T00:03:40.832Z,99.90
2018-07-07T00:06:12.237Z,99.90
2018-07-07T00:08:43.842Z,99.90
2018-07-07T00:11:15.125Z,99.90
2018-07-07T00:13:46.778Z,99.90
2018-07-07T00:16:18.096Z,99.90
2018-07-07T00:18:49.331Z,99.90
2018-07-07T00:21:20.532Z,99.90
2018-07-07T00:23:52.448Z,99.90
2018-07-07T00:26:23.685Z,99.90
2018-07-07T00:28:54.892Z,99.90
2018-07-07T00:31:26.066Z,99.90
2018-07-07T00:33:57.634Z,99.90
2018-07-07T00:36:29.025Z,99.90
2018-07-07T00:39:00.270Z,99.90
2018-07-07T00:41:31.416Z,99.90
2018-07-07T00:44:03.017Z,99.90
2018-07-07T00:46:34.684Z,99.90
2018-07-07T00:51:36.767Z,99.90
2018-07-07T00:54:08.280Z,99.90
2018-07-07T00:56:39.323Z,99.90
2018-07-07T00:59:10.725Z,99.90
2018-07-07T01:01:41.928Z,99.90
2018-07-07T01:04:13.257Z,99.90
2018-07-07T01:06:45.338Z,99.90
2018-07-07T01:09:17.139Z,99.90
2018-07-07T01:11:48.324Z,99.90
2018-07-07T01:14:20.900Z,99.90
2018-07-07T01:16:52.107Z,99.90
2018-07-07T01:19:23.604Z,99.90
2018-07-07T01:21:55.480Z,99.90
2018-07-07T01:24:26.793Z,99.90
2018-07-07T01:26:58.163Z,99.90
2018-07-07T01:29:29.425Z,99.90
2018-07-07T01:32:00.557Z,99.90
2018-07-07T01:34:31.800Z,99.90
2018-07-07T01:37:02.968Z,99.90
2018-07-07T01:39:34.208Z,99.90
2018-07-07T01:44:36.500Z,99.90
2018-07-07T01:47:07.884Z,99.90
2018-07-07T01:49:39.076Z,99.90
2018-07-07T01:52:10.319Z,99.90
2018-07-07T01:54:41.480Z,99.90
2018-07-07T01:57:12.674Z,99.90
2018-07-07T01:59:43.859Z,99.90
2018-07-07T02:02:15.048Z,99.90
2018-07-07T02:04:46.582Z,99.90
2018-07-07T02:07:17.831Z,99.90
2018-07-07T02:09:49.211Z,99.90
2018-07-07T02:12:20.865Z,99.90
2018-07-07T02:14:52.065Z,99.90
2018-07-07T02:19:54.552Z,99.90
2018-07-07T02:22:25.957Z,99.90
2018-07-07T02:24:57.173Z,99.90
2018-07-07T02:27:28.335Z,99.90
2018-07-07T02:30:00.275Z,99.90
2018-07-07T02:32:31.340Z,99.90
2018-07-07T02:35:02.308Z,99.90
2018-07-07T02:37:34.520Z,99.90
2018-07-07T02:40:05.955Z,99.90
2018-07-07T02:42:37.247Z,99.90
2018-07-07T02:45:08.679Z,99.90
2018-07-07T02:47:39.865Z,99.90
2018-07-07T02:50:11.107Z,99.90
2018-07-07T02:52:42.469Z,99.90
2018-07-07T02:55:13.866Z,99.90
2018-07-07T02:57:45.208Z,99.90
2018-07-07T03:00:17.259Z,99.90
2018-07-07T03:05:19.154Z,99.90
2018-07-07T03:07:50.357Z,99.90
2018-07-07T03:10:21.609Z,99.90
2018-07-07T03:12:52.752Z,99.90
2018-07-07T03:15:24.352Z,99.90
2018-07-07T03:17:55.792Z,99.90
2018-07-07T03:20:26.906Z,99.90
2018-07-07T03:22:58.284Z,99.90
2018-07-07T03:25:29.727Z,99.90
2018-07-07T03:28:01.082Z,99.90
2018-07-07T03:30:32.272Z,99.90
2018-07-07T03:33:03.647Z,99.90
2018-07-07T03:35:35.026Z,99.90
2018-07-07T03:38:06.555Z,99.90
2018-07-07T03:40:37.619Z,99.90
2018-07-07T03:43:09.446Z,99.90
2018-07-07T03:45:40.776Z,99.90
2018-07-07T03:48:12.037Z,99.90
2018-07-07T03:50:43.533Z,99.90
2018-07-07T03:53:14.776Z,99.90
2018-07-07T03:55:46.126Z,99.90
2018-07-07T03:58:17.419Z,99.90
2018-07-07T04:00:48.994Z,99.90
2018-07-07T04:03:20.091Z,99.90
2018-07-07T04:05:51.350Z,99.90
2018-07-07T04:08:22.512Z,99.90
2018-07-07T04:10:53.884Z,99.90
2018-07-07T04:13:25.268Z,99.90
2018-07-07T04:15:56.673Z,99.90
2018-07-07T04:18:35.955Z,99.90
2018-07-07T04:21:07.533Z,99.90
2018-07-07T04:23:38.751Z,99.90
2018-07-07T04:26:10.148Z,99.90
2018-07-07T04:28:41.293Z,99.90
2018-07-07T04:31:12.660Z,99.90
2018-07-07T04:33:44.370Z,99.90
2018-07-07T04:36:15.620Z,99.90
2018-07-07T04:38:47.281Z,99.90
2018-07-07T04:41:18.449Z,99.90
2018-07-07T04:43:49.772Z,99.90
2018-07-07T04:46:21.211Z,99.90
2018-07-07T04:48:52.369Z,99.90
2018-07-07T04:51:23.743Z,99.90
2018-07-07T04:53:54.773Z,99.90
2018-07-07T04:56:26.803Z,99.90
2018-07-07T04:58:57.948Z,99.90
2018-07-07T05:01:29.577Z,99.90
2018-07-07T05:04:00.934Z,99.90
2018-07-07T05:06:32.327Z,99.90
2018-07-07T05:09:03.655Z,99.90
2018-07-07T05:11:34.738Z,99.90
2018-07-07T05:14:13.051Z,99.90
2018-07-07T05:19:14.981Z,99.90
2018-07-07T05:21:46.209Z,99.90
2018-07-07T05:24:17.503Z,99.90
2018-07-07T05:26:48.945Z,99.90
2018-07-07T05:29:20.741Z,99.90
2018-07-07T05:31:53.671Z,99.90
2018-07-07T05:34:24.852Z,99.90
2018-07-07T05:36:56.083Z,99.90
2018-07-07T05:39:27.231Z,99.90
2018-07-07T05:41:58.460Z,99.90
2018-07-07T05:44:30.079Z,99.90
2018-07-07T05:47:01.806Z,99.90
2018-07-07T05:49:33.007Z,99.90
2018-07-07T05:52:04.232Z,99.90
2018-07-07T05:54:35.620Z,99.90
2018-07-07T05:57:07.052Z,99.90
2018-07-07T05:59:39.159Z,99.90
2018-07-07T06:02:10.589Z,99.90
2018-07-07T06:04:41.900Z,99.90
2018-07-07T06:07:13.559Z,99.90
2018-07-07T06:09:44.647Z,99.90
2018-07-07T06:12:15.884Z,99.90
2018-07-07T06:14:47.260Z,99.90
2018-07-07T06:17:18.447Z,99.90
2018-07-07T06:19:49.624Z,99.90
2018-07-07T06:22:21.045Z,99.90
2018-07-07T06:24:52.424Z,99.90
2018-07-07T06:27:23.783Z,99.90
2018-07-07T06:29:55.171Z,99.90
2018-07-07T06:32:26.269Z,99.90
2018-07-07T06:34:57.636Z,99.90
2018-07-07T06:37:29.744Z,99.90
2018-07-07T06:40:00.944Z,99.90
2018-07-07T06:42:32.137Z,99.90
2018-07-07T06:45:03.532Z,99.90
2018-07-07T06:47:34.923Z,99.90
2018-07-07T06:50:06.333Z,99.90
2018-07-07T06:52:37.540Z,99.90
2018-07-07T06:55:09.143Z,99.90
2018-07-07T06:57:40.239Z,99.90
2018-07-07T07:00:12.214Z,99.90
2018-07-07T07:02:43.643Z,99.90
2018-07-07T07:05:15.039Z,99.90
2018-07-07T07:07:46.188Z,99.90
2018-07-07T07:10:17.430Z,99.90
2018-07-07T07:12:48.576Z,99.90
2018-07-07T07:15:20.059Z,99.90
2018-07-07T07:17:51.188Z,99.90
2018-07-07T07:20:22.824Z,99.90
2018-07-07T07:22:54.281Z,99.90
2018-07-07T07:25:25.586Z,99.90
2018-07-07T07:27:56.741Z,99.90
2018-07-07T07:30:27.930Z,99.90
2018-07-07T07:32:59.445Z,99.90
2018-07-07T07:35:30.532Z,99.90
2018-07-07T07:38:01.704Z,99.90
2018-07-07T07:40:33.318Z,99.90
2018-07-07T07:43:04.989Z,99.90
2018-07-07T07:45:36.624Z,99.90
2018-07-07T07:48:08.488Z,99.90
2018-07-07T07:50:39.903Z,99.90
2018-07-07T07:53:10.995Z,99.90
2018-07-07T07:55:42.243Z,99.90
2018-07-07T07:58:13.589Z,99.90
2018-07-07T08:00:44.953Z,99.90
2018-07-07T08:03:16.483Z,99.90
2018-07-07T08:05:47.594Z,99.90
2018-07-07T08:08:18.939Z,99.90
2018-07-07T08:10:50.135Z,99.90
2018-07-07T08:13:21.541Z,99.90
2018-07-07T08:15:52.733Z,99.90
2018-07-07T08:18:23.909Z,99.90
2018-07-07T08:20:55.280Z,99.90
2018-07-07T08:23:26.680Z,99.90
2018-07-07T08:25:57.855Z,99.90
2018-07-07T08:28:29.129Z,99.90
2018-07-07T08:31:00.472Z,99.90
2018-07-07T08:33:31.862Z,99.90
2018-07-07T08:36:03.278Z,99.90
2018-07-07T08:38:34.651Z,99.90
2018-07-07T08:41:06.212Z,99.90
2018-07-07T08:43:37.403Z,99.90
2018-07-07T08:46:08.907Z,99.90
2018-07-07T08:48:39.981Z,99.90
2018-07-07T08:51:11.676Z,99.90
2018-07-07T08:53:42.955Z,99.90
2018-07-07T08:56:14.311Z,99.90
2018-07-07T08:58:45.511Z,99.90
2018-07-07T09:01:16.699Z,99.90
2018-07-07T09:03:48.148Z,99.90
2018-07-07T09:06:19.504Z,99.90
2018-07-07T09:08:50.917Z,99.90
2018-07-07T09:11:22.271Z,99.90
2018-07-07T09:13:53.490Z,99.90
2018-07-07T09:16:25.676Z,99.90
2018-07-07T09:18:57.027Z,99.90
2018-07-07T09:21:28.208Z,99.90
2018-07-07T09:23:59.483Z,99.90
2018-07-07T09:26:30.616Z,99.90
2018-07-07T09:29:01.952Z,99.90
2018-07-07T09:31:33.570Z,99.90
2018-07-07T09:34:04.952Z,99.90
2018-07-07T09:36:36.289Z,99.90
2018-07-07T09:39:08.623Z,99.90
2018-07-07T09:41:39.926Z,99.90
2018-07-07T09:44:11.172Z,99.90
2018-07-07T09:46:42.829Z,99.90
2018-07-07T09:49:14.381Z,99.90
2018-07-07T09:51:45.485Z,99.90
2018-07-07T09:54:16.668Z,99.90
2018-07-07T09:56:48.089Z,99.90
2018-07-07T09:59:19.536Z,99.90
2018-07-07T10:01:50.826Z,99.90
2018-07-07T10:04:21.996Z,99.90
2018-07-07T10:06:53.675Z,99.90
2018-07-07T10:09:24.786Z,99.10
2018-07-07T10:11:56.165Z,98.40
2018-07-07T10:14:27.178Z,96.80
2018-07-07T10:16:58.741Z,99.00
2018-07-07T10:19:30.825Z,99.50
2018-07-07T10:22:02.091Z,97.60
2018-07-07T10:24:33.296Z,97.80
2018-07-07T10:27:04.315Z,99.40
2018-07-07T10:29:36.184Z,96.60
2018-07-07T10:32:07.492Z,97.60
2018-07-07T10:34:38.873Z,94.10
2018-07-07T10:37:10.323Z,96.30
2018-07-07T10:39:42.278Z,96.50
2018-07-07T10:42:13.649Z,96.30
2018-07-07T10:44:45.082Z,97.30
2018-07-07T10:47:16.377Z,95.30
2018-07-07T10:49:47.584Z,94.50
2018-07-07T10:52:18.956Z,95.70
2018-07-07T10:54:50.451Z,95.40
2018-07-07T10:57:21.604Z,94.80
2018-07-07T10:59:53.069Z,94.60
2018-07-07T11:02:24.363Z,95.20
2018-07-07T11:04:55.809Z,94.70
2018-07-07T11:07:27.131Z,93.10
2018-07-07T11:09:58.713Z,93.30
2018-07-07T11:12:30.226Z,94.00
2018-07-07T11:15:02.369Z,93.60
2018-07-07T11:17:33.931Z,92.40
2018-07-07T11:20:05.229Z,89.20
2018-07-07T11:22:37.184Z,89.30
2018-07-07T11:25:08.420Z,89.30
2018-07-07T11:27:40.047Z,92.30
2018-07-07T11:30:11.453Z,85.20
2018-07-07T11:32:42.779Z,84.30
2018-07-07T11:35:14.123Z,84.70
2018-07-07T11:37:45.434Z,82.00
2018-07-07T11:40:16.841Z,85.00
2018-07-07T11:42:48.147Z,82.00
2018-07-07T11:45:19.496Z,84.60
2018-07-07T11:47:50.891Z,86.00
2018-07-07T11:50:22.635Z,84.70
2018-07-07T11:52:53.827Z,83.20
2018-07-07T11:55:24.884Z,81.90
2018-07-07T11:57:56.087Z,81.50
2018-07-07T12:00:28.080Z,80.40
2018-07-07T12:02:59.336Z,81.20
2018-07-07T12:05:31.432Z,81.90
2018-07-07T12:08:13.785Z,80.30
2018-07-07T12:10:34.193Z,74.40
2018-07-07T12:13:05.662Z,77.80
2018-07-07T12:15:36.748Z,75.40
2018-07-07T12:18:08.417Z,74.40
2018-07-07T12:20:39.738Z,74.50
2018-07-07T12:23:11.451Z,73.70
2018-07-07T12:25:43.024Z,74.50
2018-07-07T12:28:14.511Z,68.70
2018-07-07T12:30:45.859Z,74.50
2018-07-07T12:33:16.915Z,71.90
2018-07-07T12:35:48.263Z,74.00
2018-07-07T12:38:19.685Z,70.70
2018-07-07T12:40:50.881Z,71.80
2018-07-07T12:43:22.262Z,73.30
2018-07-07T12:45:53.499Z,73.30
2018-07-07T12:48:25.009Z,74.80
2018-07-07T12:50:56.312Z,71.90
2018-07-07T12:53:28.394Z,73.00
2018-07-07T12:56:00.021Z,75.00
2018-07-07T12:58:31.331Z,76.00
2018-07-07T13:01:02.562Z,74.90
2018-07-07T13:03:33.776Z,73.20
2018-07-07T13:06:05.218Z,71.10
2018-07-07T13:11:07.473Z,72.00
2018-07-07T13:13:38.559Z,73.00
2018-07-07T13:16:09.755Z,71.70
2018-07-07T13:18:40.948Z,72.80
2018-07-07T13:21:12.231Z,72.50
2018-07-07T13:23:43.932Z,69.90
2018-07-07T13:26:15.340Z,71.50
2018-07-07T13:31:17.227Z,66.50
2018-07-07T13:33:48.616Z,68.50
2018-07-07T13:36:19.878Z,68.40
2018-07-07T13:38:51.290Z,65.60
2018-07-07T13:41:22.577Z,61.80
2018-07-07T13:43:53.844Z,65.70
2018-07-07T13:46:24.971Z,67.70
2018-07-07T13:48:56.027Z,67.80
2018-07-07T13:51:27.421Z,67.10
2018-07-07T13:53:58.640Z,66.20
2018-07-07T13:56:29.963Z,67.10
2018-07-07T13:59:01.343Z,67.10
2018-07-07T14:01:32.739Z,67.10
2018-07-07T14:04:03.952Z,70.00
2018-07-07T14:06:35.097Z,67.90
2018-07-07T14:09:07.414Z,62.90
2018-07-07T14:11:38.671Z,66.70
2018-07-07T14:14:09.895Z,65.70
2018-07-07T14:16:42.547Z,67.40
2018-07-07T14:19:13.997Z,67.50
2018-07-07T14:21:45.701Z,69.10
2018-07-07T14:24:16.855Z,68.30
2018-07-07T14:26:48.033Z,67.70
2018-07-07T14:29:19.399Z,65.80
2018-07-07T14:31:50.807Z,68.50
2018-07-07T14:34:21.990Z,66.80
2018-07-07T14:36:53.524Z,68.20
2018-07-07T14:39:30.098Z,68.60
2018-07-07T14:42:24.086Z,69.10
2018-07-07T14:44:55.221Z,69.60
2018-07-07T14:47:26.463Z,70.80
2018-07-07T14:49:57.698Z,71.00
2018-07-07T14:52:29.244Z,69.90
2018-07-07T14:55:00.410Z,67.50
2018-07-07T14:57:31.863Z,67.00
2018-07-07T15:00:03.019Z,66.50
2018-07-07T15:02:34.216Z,68.70
2018-07-07T15:05:06.434Z,68.10
2018-07-07T15:07:37.771Z,70.10
2018-07-07T15:10:10.579Z,71.00
2018-07-07T15:12:41.770Z,72.80
2018-07-07T15:17:45.119Z,70.50
2018-07-07T15:20:16.280Z,72.50
2018-07-07T15:22:47.565Z,70.70
2018-07-07T15:27:50.107Z,66.20
2018-07-07T15:30:21.347Z,63.50
2018-07-07T15:32:52.807Z,68.50
2018-07-07T15:35:24.217Z,65.90
2018-07-07T15:37:55.620Z,66.90
2018-07-07T15:40:27.075Z,64.20
2018-07-07T15:42:58.842Z,65.60
2018-07-07T15:45:30.336Z,63.00
2018-07-07T15:48:01.530Z,67.40
2018-07-07T15:50:32.772Z,64.50
2018-07-07T15:53:04.412Z,65.70
2018-07-07T15:55:35.676Z,68.00
2018-07-07T15:58:07.112Z,67.00
2018-07-07T16:00:38.492Z,66.30
2018-07-07T16:03:09.806Z,65.20
2018-07-07T16:05:41.527Z,64.50
2018-07-07T16:08:13.019Z,63.40
2018-07-07T16:10:44.431Z,61.60
2018-07-07T16:13:15.769Z,62.90
2018-07-07T16:15:47.448Z,65.80
2018-07-07T16:20:49.529Z,62.80
2018-07-07T16:23:21.335Z,60.40
2018-07-07T16:25:52.562Z,60.70
2018-07-07T16:28:23.736Z,59.70
2018-07-07T16:30:55.162Z,59.00
2018-07-07T16:33:26.716Z,57.80
2018-07-07T16:35:57.922Z,58.20
2018-07-07T16:38:29.417Z,59.00
2018-07-07T16:41:00.635Z,60.10
2018-07-07T16:43:33.060Z,59.80
2018-07-07T16:46:04.769Z,58.00
2018-07-07T16:48:36.359Z,58.30
2018-07-07T16:51:07.930Z,58.80
2018-07-07T16:53:39.202Z,58.50
2018-07-07T16:56:10.910Z,58.00
2018-07-07T16:58:42.115Z,57.00
2018-07-07T17:01:13.383Z,57.50
2018-07-07T17:03:44.871Z,58.10
2018-07-07T17:06:16.673Z,58.90
2018-07-07T17:08:48.542Z,59.20
2018-07-07T17:11:20.023Z,55.90
2018-07-07T17:13:51.587Z,57.10
2018-07-07T17:16:23.859Z,56.40
2018-07-07T17:18:55.354Z,56.20
2018-07-07T17:21:27.253Z,59.00
2018-07-07T17:23:58.701Z,53.80
2018-07-07T17:26:30.041Z,55.70
2018-07-07T17:29:01.551Z,59.10
2018-07-07T17:31:32.712Z,57.50
2018-07-07T17:34:04.278Z,56.10
2018-07-07T17:36:35.872Z,56.60
2018-07-07T17:39:07.078Z,57.50
2018-07-07T17:41:38.331Z,58.70
2018-07-07T17:44:09.781Z,59.20
2018-07-07T17:49:11.978Z,58.60
2018-07-07T17:51:43.268Z,59.30
2018-07-07T17:54:15.379Z,59.60
2018-07-07T17:56:46.726Z,59.80
2018-07-07T17:59:19.260Z,59.80
2018-07-07T18:01:51.003Z,60.50
2018-07-07T18:04:22.866Z,60.60
2018-07-07T18:09:24.916Z,59.00
2018-07-07T18:11:55.954Z,59.20
2018-07-07T18:14:27.335Z,61.00
2018-07-07T18:16:58.887Z,59.00
2018-07-07T18:19:31.062Z,58.60
2018-07-07T18:22:02.261Z,61.20
2018-07-07T18:24:33.653Z,62.00
2018-07-07T18:27:05.075Z,58.40
2018-07-07T18:29:36.676Z,62.10
2018-07-07T18:32:07.974Z,58.80
2018-07-07T18:34:39.296Z,58.60
2018-07-07T18:37:12.416Z,59.60
2018-07-07T18:39:43.816Z,62.30
2018-07-07T18:42:15.151Z,63.80
2018-07-07T18:44:46.809Z,63.30
2018-07-07T18:47:18.123Z,62.30
2018-07-07T18:49:49.784Z,63.40
2018-07-07T18:52:20.920Z,62.90
2018-07-07T18:54:52.106Z,63.90
2018-07-07T18:57:23.348Z,62.30
2018-07-07T18:59:54.667Z,62.10
2018-07-07T19:02:25.968Z,63.10
2018-07-07T19:04:57.088Z,63.50
2018-07-07T19:07:28.350Z,63.80
2018-07-07T19:12:30.641Z,63.00
2018-07-07T19:15:06.895Z,63.30
2018-07-07T19:17:38.302Z,63.70
2018-07-07T19:20:13.741Z,63.70
2018-07-07T19:22:49.891Z,63.80
2018-07-07T19:25:25.923Z,64.70
2018-07-07T19:27:57.117Z,66.60
2018-07-07T19:30:28.705Z,70.10
2018-07-07T19:33:04.628Z,70.80
2018-07-07T19:35:40.966Z,70.80
2018-07-07T19:38:12.446Z,73.70
2018-07-07T19:40:43.742Z,74.20
2018-07-07T19:43:15.000Z,74.80
2018-07-07T19:45:46.433Z,75.60
2018-07-07T19:48:18.049Z,76.40
2018-07-07T19:50:49.374Z,76.60
2018-07-07T19:53:21.053Z,77.20
2018-07-07T19:55:52.644Z,78.40
2018-07-07T19:58:24.059Z,78.00
2018-07-07T20:00:55.157Z,78.50
2018-07-07T20:03:26.556Z,78.90
2018-07-07T20:05:58.051Z,78.40
2018-07-07T20:08:29.332Z,79.30
2018-07-07T20:11:00.654Z,81.10
2018-07-07T20:13:32.715Z,80.30
2018-07-07T20:16:21.912Z,81.70
2018-07-07T20:19:29.019Z,81.90
2018-07-07T20:22:02.836Z,81.80
2018-07-07T20:24:37.481Z,82.60
2018-07-07T20:27:14.539Z,83.30
2018-07-07T20:29:45.840Z,84.40
2018-07-07T20:32:21.683Z,84.80
2018-07-07T20:34:52.762Z,85.20
2018-07-07T20:37:24.136Z,85.50
2018-07-07T20:39:55.423Z,86.10
2018-07-07T20:42:26.555Z,86.10
2018-07-07T20:44:57.722Z,86.40
2018-07-07T20:47:29.131Z,87.00
2018-07-07T20:50:00.372Z,88.00
2018-07-07T20:52:31.491Z,89.80
2018-07-07T20:55:03.720Z,89.60
2018-07-07T20:57:35.069Z,90.10
2018-07-07T21:00:06.989Z,91.00
2018-07-07T21:02:38.090Z,91.30
2018-07-07T21:05:09.536Z,91.90
2018-07-07T21:07:40.810Z,92.20
2018-07-07T21:10:12.075Z,93.00
2018-07-07T21:12:44.038Z,93.10
2018-07-07T21:15:18.780Z,93.70
2018-07-07T21:17:50.164Z,93.90
2018-07-07T21:20:21.408Z,93.60
2018-07-07T21:22:52.506Z,94.30
2018-07-07T21:25:23.860Z,94.50
2018-07-07T21:27:54.950Z,95.20
2018-07-07T21:30:27.286Z,95.30
2018-07-07T21:32:58.455Z,95.90
2018-07-07T21:35:29.689Z,96.00
2018-07-07T21:38:00.879Z,96.40
2018-07-07T21:40:32.067Z,96.80
2018-07-07T21:43:03.219Z,96.90
2018-07-07T21:45:34.407Z,97.00
2018-07-07T21:48:05.679Z,97.20
2018-07-07T21:53:07.988Z,98.00
2018-07-07T21:55:39.572Z,98.40
2018-07-07T21:58:15.836Z,98.50
2018-07-07T22:01:07.866Z,99.80
2018-07-07T22:03:44.243Z,99.60
2018-07-07T22:06:20.404Z,99.90
2018-07-07T22:08:52.004Z,99.90
2018-07-07T22:11:23.410Z,99.90
2018-07-07T22:13:55.269Z,99.90
2018-07-07T22:16:26.445Z,99.90
2018-07-07T22:18:57.885Z,99.90
2018-07-07T22:22:10.285Z,99.90
2018-07-07T22:24:42.518Z,99.90
2018-07-07T22:27:14.921Z,99.90
2018-07-07T22:29:46.064Z,99.90
2018-07-07T22:32:20.896Z,99.90
2018-07-07T22:34:53.421Z,99.90
2018-07-07T22:37:24.535Z,99.90
2018-07-07T22:39:56.067Z,99.90
2018-07-07T22:42:27.162Z,99.90
2018-07-07T22:44:58.462Z,99.90
2018-07-07T22:47:29.501Z,99.90
2018-07-07T22:50:00.722Z,99.90
2018-07-07T22:52:31.893Z,99.90
2018-07-07T22:55:03.126Z,99.90
2018-07-07T22:57:34.303Z,99.90
2018-07-07T23:00:05.825Z,99.90
2018-07-07T23:02:37.235Z,99.90
2018-07-07T23:05:08.453Z,99.90
2018-07-07T23:07:39.694Z,99.90
2018-07-07T23:10:11.215Z,99.90
2018-07-07T23:12:43.222Z,99.90
2018-07-07T23:15:14.458Z,99.90
2018-07-07T23:17:46.016Z,99.90
2018-07-07T23:20:17.168Z,99.90
2018-07-07T23:22:52.909Z,99.90
2018-07-07T23:25:24.146Z,99.90
2018-07-07T23:27:55.425Z,99.90
2018-07-07T23:30:26.455Z,99.90
2018-07-07T23:32:57.864Z,99.90
2018-07-07T23:35:29.147Z,99.90
2018-07-07T23:38:00.251Z,99.90
2018-07-07T23:40:31.487Z,99.90
2018-07-07T23:43:02.648Z,99.90
2018-07-07T23:45:33.819Z,99.90
2018-07-07T23:48:05.377Z,99.90
2018-07-07T23:50:37.026Z,99.90
2018-07-07T23:53:08.229Z,99.90
2018-07-07T23:55:39.478Z,99.90
2018-07-07T23:58:10.777Z,99.90
